createdAt,value
2022-11-03T00:00:13.017Z,19.37
2022-11-03T00:00:45.231Z,21.87
2022-11-03T00:01:17.104Z,20.75
2022-11-03T00:01:51.132Z,24.37
2022-11-03T00:02:23.327Z,22.20
2022-11-03T00:02:55.263Z,25.08
2022-11-03T00:03:27.751Z,20.20
2022-11-03T00:03:59.612Z,22.20
2022-11-03T00:04:31.475Z,23.20
2022-11-03T00:05:23.332Z,18.75
2022-11-03T00:06:07.569Z,21.40
2022-11-03T00:06:40.936Z,21.30
2022-11-03T00:07:13.046Z,20.60
2022-11-03T00:07:44.907Z,18.48
2022-11-03T00:08:16.753Z,21.33
2022-11-03T00:08:48.581Z,18.77
2022-11-03T00:09:21.654Z,21.45
2022-11-03T00:09:53.559Z,17.42
2022-11-03T00:10:25.386Z,18.10
2022-11-03T00:11:07.529Z,19.95
2022-11-03T00:11:41.929Z,17.45
2022-11-03T00:12:13.927Z,20.80
2022-11-03T00:12:45.757Z,16.77
2022-11-03T00:13:17.621Z,18.73
2022-11-03T00:13:49.465Z,16.20
2022-11-03T00:14:21.401Z,16.98
2022-11-03T00:14:53.323Z,16.48
2022-11-03T00:15:25.297Z,18.62
2022-11-03T00:15:57.447Z,16.67
2022-11-03T00:16:29.539Z,17.20
2022-11-03T00:17:01.405Z,15.55
2022-11-03T00:17:33.682Z,16.37
2022-11-03T00:18:05.494Z,14.45
2022-11-03T00:18:37.728Z,17.50
2022-11-03T00:19:10.910Z,18.05
2022-11-03T00:19:42.726Z,16.70
2022-11-03T00:20:14.742Z,16.40
2022-11-03T00:20:56.266Z,20.37
2022-11-03T00:21:29.134Z,18.20
2022-11-03T00:22:01.003Z,16.60
2022-11-03T00:22:33.673Z,17.83
2022-11-03T00:23:05.725Z,15.43
2022-11-03T00:23:40.151Z,15.45
2022-11-03T00:24:12.732Z,17.42
2022-11-03T00:24:44.578Z,16.60
2022-11-03T00:25:16.486Z,15.80
2022-11-03T00:25:48.317Z,16.60
2022-11-03T00:26:28.194Z,17.08
2022-11-03T00:27:00.386Z,13.90
2022-11-03T00:27:32.311Z,19.75
2022-11-03T00:28:04.352Z,15.93
2022-11-03T00:28:37.321Z,15.48
2022-11-03T00:29:14.181Z,16.25
2022-11-03T00:29:46.007Z,15.18
2022-11-03T00:30:17.917Z,17.52
2022-11-03T00:30:49.731Z,15.40
2022-11-03T00:31:29.915Z,17.90
2022-11-03T00:32:02.078Z,15.50
2022-11-03T00:32:33.906Z,13.52
2022-11-03T00:33:06.000Z,18.40
2022-11-03T00:33:38.774Z,16.02
2022-11-03T00:34:11.400Z,15.80
2022-11-03T00:34:43.255Z,14.50
2022-11-03T00:35:15.125Z,16.80
2022-11-03T00:35:46.960Z,18.23
2022-11-03T00:36:24.042Z,18.05
2022-11-03T00:36:55.919Z,19.92
2022-11-03T00:37:28.062Z,15.40
2022-11-03T00:37:59.895Z,18.35
2022-11-03T00:38:32.461Z,15.02
2022-11-03T00:39:05.825Z,17.48
2022-11-03T00:39:37.679Z,15.68
2022-11-03T00:40:11.180Z,18.87
2022-11-03T00:41:21.052Z,14.43
2022-11-03T00:42:11.139Z,16.33
2022-11-03T00:42:43.580Z,14.82
2022-11-03T00:43:15.395Z,14.35
2022-11-03T00:43:48.694Z,19.23
2022-11-03T00:44:20.517Z,15.70
2022-11-03T00:44:52.343Z,15.35
2022-11-03T00:45:24.159Z,13.02
2022-11-03T00:45:56.404Z,15.48
2022-11-03T00:46:28.870Z,20.42
2022-11-03T00:47:00.717Z,17.15
2022-11-03T00:47:32.560Z,14.98
2022-11-03T00:48:23.222Z,14.15
2022-11-03T00:48:55.077Z,14.25
2022-11-03T00:49:26.920Z,14.80
2022-11-03T00:49:58.738Z,15.93
2022-11-03T00:50:33.100Z,15.23
2022-11-03T00:51:04.863Z,17.25
2022-11-03T00:51:36.782Z,17.70
2022-11-03T00:52:08.631Z,15.20
2022-11-03T00:52:40.476Z,17.65
2022-11-03T00:53:12.565Z,16.62
2022-11-03T00:53:45.898Z,16.98
2022-11-03T00:54:17.806Z,19.58
2022-11-03T00:54:54.284Z,15.10
2022-11-03T00:55:27.306Z,17.52
2022-11-03T00:55:59.521Z,18.00
2022-11-03T00:56:37.251Z,13.70
2022-11-03T00:57:09.087Z,14.95
2022-11-03T00:57:40.956Z,15.15
2022-11-03T00:58:13.080Z,15.00
2022-11-03T01:01:46.990Z,15.52
2022-11-03T01:02:19.401Z,16.00
2022-11-03T01:02:51.334Z,13.10
2022-11-03T01:03:23.518Z,17.65
2022-11-03T01:04:15.793Z,11.05
2022-11-03T01:05:06.134Z,17.85
2022-11-03T01:06:03.717Z,14.25
2022-11-03T01:06:50.629Z,15.13
2022-11-03T01:07:22.569Z,15.75
2022-11-03T01:07:54.717Z,14.10
2022-11-03T01:08:35.635Z,12.35
2022-11-03T01:09:07.569Z,13.15
2022-11-03T01:09:41.154Z,12.52
2022-11-03T01:10:13.054Z,14.52
2022-11-03T01:11:04.847Z,13.18
2022-11-03T01:11:45.711Z,11.90
2022-11-03T01:12:19.230Z,13.13
2022-11-03T01:12:51.115Z,13.60
2022-11-03T01:13:22.926Z,13.02
2022-11-03T01:13:55.857Z,15.32
2022-11-03T01:14:34.162Z,15.35
2022-11-03T01:15:06.399Z,13.62
2022-11-03T01:15:38.214Z,12.82
2022-11-03T01:16:10.303Z,11.52
2022-11-03T01:16:42.763Z,12.02
2022-11-03T01:17:17.674Z,10.98
2022-11-03T01:17:49.490Z,13.45
2022-11-03T01:18:21.312Z,12.68
2022-11-03T01:18:53.415Z,11.00
2022-11-03T01:19:25.836Z,13.52
2022-11-03T01:19:57.694Z,15.80
2022-11-03T01:20:29.531Z,13.18
2022-11-03T01:21:01.382Z,12.85
2022-11-03T01:21:33.984Z,12.48
2022-11-03T01:22:09.615Z,11.55
2022-11-03T01:22:42.778Z,11.18
2022-11-03T01:23:14.643Z,13.80
2022-11-03T01:23:46.854Z,10.55
2022-11-03T01:24:18.762Z,12.68
2022-11-03T01:24:54.015Z,17.35
2022-11-03T01:25:26.476Z,15.35
2022-11-03T01:26:03.520Z,10.20
2022-11-03T01:26:35.356Z,11.75
2022-11-03T01:27:13.152Z,10.55
2022-11-03T01:27:45.072Z,11.77
2022-11-03T01:28:17.064Z,9.90
2022-11-03T01:28:49.110Z,9.90
2022-11-03T01:29:20.998Z,12.27
2022-11-03T01:29:53.134Z,11.07
2022-11-03T01:30:24.980Z,14.23
2022-11-03T01:30:56.830Z,10.68
2022-11-03T01:31:28.849Z,10.63
2022-11-03T01:32:00.673Z,11.43
2022-11-03T01:32:32.541Z,14.77
2022-11-03T01:33:04.569Z,12.23
2022-11-03T01:33:36.571Z,11.88
2022-11-03T01:34:14.722Z,11.73
2022-11-03T01:34:46.557Z,9.98
2022-11-03T01:35:18.709Z,10.50
2022-11-03T01:35:53.645Z,10.43
2022-11-03T01:36:25.989Z,10.15
2022-11-03T01:36:57.942Z,12.02
2022-11-03T01:37:29.781Z,14.77
2022-11-03T01:38:01.630Z,11.30
2022-11-03T01:38:35.411Z,10.32
2022-11-03T01:39:07.268Z,13.85
2022-11-03T01:39:39.103Z,10.00
2022-11-03T01:40:11.531Z,11.85
2022-11-03T01:40:44.079Z,12.20
2022-11-03T01:41:21.754Z,13.75
2022-11-03T01:41:53.884Z,12.30
2022-11-03T01:42:25.741Z,11.98
2022-11-03T01:43:15.111Z,11.52
2022-11-03T01:44:09.854Z,10.75
2022-11-03T01:44:46.660Z,11.25
2022-11-03T01:45:18.500Z,15.60
2022-11-03T01:45:57.649Z,10.23
2022-11-03T01:46:29.764Z,12.18
2022-11-03T01:47:04.730Z,10.38
2022-11-03T01:47:37.146Z,13.95
2022-11-03T01:48:11.465Z,11.98
2022-11-03T01:49:05.136Z,13.98
2022-11-03T01:49:46.767Z,11.23
2022-11-03T01:50:20.380Z,12.77
2022-11-03T01:50:52.993Z,8.82
2022-11-03T01:51:29.166Z,11.00
2022-11-03T01:52:07.873Z,13.43
2022-11-03T01:53:06.476Z,13.60
2022-11-03T01:53:44.188Z,11.93
2022-11-03T01:54:21.521Z,10.10
2022-11-03T01:54:59.542Z,10.05
2022-11-03T01:55:36.908Z,9.55
2022-11-03T01:56:11.189Z,14.77
2022-11-03T01:56:48.133Z,12.82
2022-11-03T01:57:25.590Z,9.60
2022-11-03T01:58:03.291Z,12.65
2022-11-03T01:58:38.166Z,9.85
2022-11-03T01:59:10.865Z,11.68
2022-11-03T01:59:44.252Z,10.05
2022-11-03T02:00:16.383Z,12.70
2022-11-03T02:00:52.597Z,11.45
2022-11-03T02:01:24.833Z,11.63
2022-11-03T02:01:56.965Z,12.00
2022-11-03T02:02:29.101Z,11.40
2022-11-03T02:03:01.591Z,14.98
2022-11-03T02:03:40.741Z,12.10
2022-11-03T02:04:33.117Z,10.60
2022-11-03T02:05:06.446Z,10.85
2022-11-03T02:05:40.539Z,14.23
2022-11-03T02:06:13.152Z,9.95
2022-11-03T02:06:45.864Z,12.30
2022-11-03T02:07:26.867Z,15.02
2022-11-03T02:08:10.125Z,15.20
2022-11-03T02:08:49.340Z,10.60
2022-11-03T02:09:21.222Z,10.43
2022-11-03T02:09:53.123Z,11.63
2022-11-03T02:10:25.739Z,10.48
2022-11-03T02:10:58.413Z,11.73
2022-11-03T02:11:50.900Z,15.10
2022-11-03T02:12:23.293Z,13.05
2022-11-03T02:12:55.292Z,7.82
2022-11-03T02:13:28.111Z,15.93
2022-11-03T02:14:00.579Z,10.45
2022-11-03T02:14:32.485Z,10.13
2022-11-03T02:15:13.496Z,10.25
2022-11-03T02:15:50.182Z,12.95
2022-11-03T02:16:25.221Z,10.90
2022-11-03T02:17:02.283Z,11.32
2022-11-03T02:17:35.828Z,12.02
2022-11-03T02:18:09.729Z,11.85
2022-11-03T02:18:42.907Z,10.77
2022-11-03T02:19:36.202Z,12.82
2022-11-03T02:20:18.906Z,13.02
2022-11-03T02:21:02.518Z,9.23
2022-11-03T02:22:02.850Z,11.20
2022-11-03T02:22:53.099Z,12.00
2022-11-03T02:24:09.843Z,10.20
2022-11-03T02:24:53.830Z,12.35
2022-11-03T02:25:52.802Z,12.95
2022-11-03T02:26:25.199Z,11.40
2022-11-03T02:26:57.342Z,12.23
2022-11-03T02:27:29.432Z,9.13
2022-11-03T02:28:02.946Z,12.73
2022-11-03T02:28:34.790Z,9.00
2022-11-03T02:29:06.671Z,10.93
2022-11-03T02:29:38.727Z,11.82
2022-11-03T02:30:11.619Z,12.13
2022-11-03T02:31:06.246Z,9.80
2022-11-03T02:31:50.760Z,9.77
2022-11-03T02:32:28.289Z,11.60
2022-11-03T02:33:22.787Z,10.07
2022-11-03T02:34:10.470Z,11.02
2022-11-03T02:34:50.229Z,12.27
2022-11-03T02:35:22.385Z,11.02
2022-11-03T02:36:02.575Z,10.55
2022-11-03T02:36:43.616Z,10.68
2022-11-03T02:37:21.060Z,12.18
2022-11-03T02:37:57.740Z,12.15
2022-11-03T02:38:32.286Z,15.25
2022-11-03T02:39:14.983Z,11.88
2022-11-03T02:39:53.134Z,13.68
2022-11-03T02:40:33.301Z,9.88
2022-11-03T02:41:08.191Z,12.63
2022-11-03T02:41:40.808Z,13.68
2022-11-03T02:42:15.540Z,14.60
2022-11-03T02:42:51.864Z,12.30
2022-11-03T02:43:25.896Z,10.50
2022-11-03T02:43:58.560Z,11.82
2022-11-03T02:44:33.615Z,10.45
2022-11-03T02:45:11.908Z,10.80
2022-11-03T02:45:50.599Z,14.75
2022-11-03T02:46:25.818Z,14.75
2022-11-03T02:47:01.550Z,10.35
2022-11-03T02:47:36.000Z,10.93
2022-11-03T02:48:08.868Z,13.10
2022-11-03T02:48:40.707Z,11.88
2022-11-03T02:49:12.545Z,10.55
2022-11-03T02:49:53.474Z,14.32
2022-11-03T02:50:30.262Z,11.65
2022-11-03T02:51:03.804Z,11.12
2022-11-03T02:51:35.622Z,11.43
2022-11-03T02:52:27.557Z,14.63
2022-11-03T02:53:00.235Z,10.90
2022-11-03T02:53:38.343Z,11.07
2022-11-03T02:54:28.078Z,13.27
2022-11-03T02:55:07.328Z,14.35
2022-11-03T02:55:58.264Z,10.30
2022-11-03T02:57:11.797Z,9.98
2022-11-03T02:57:51.045Z,9.05
2022-11-03T02:58:37.966Z,8.75
2022-11-03T02:59:15.074Z,12.18
2022-11-03T02:59:57.185Z,8.75
2022-11-03T03:00:31.535Z,10.05
2022-11-03T03:01:27.309Z,15.13
2022-11-03T03:02:24.192Z,13.32
2022-11-03T03:03:00.601Z,13.20
2022-11-03T03:03:40.526Z,8.40
2022-11-03T03:04:27.059Z,10.02
2022-11-03T03:05:02.239Z,9.15
2022-11-03T03:05:37.449Z,10.40
2022-11-03T03:06:15.463Z,13.02
2022-11-03T03:06:56.878Z,10.55
2022-11-03T03:07:32.755Z,16.08
2022-11-03T03:08:07.927Z,11.00
2022-11-03T03:08:44.472Z,10.75
2022-11-03T03:09:21.644Z,10.18
2022-11-03T03:09:57.457Z,12.95
2022-11-03T03:10:37.716Z,8.25
2022-11-03T03:11:12.558Z,14.07
2022-11-03T03:11:47.631Z,13.35
2022-11-03T03:12:21.774Z,11.15
2022-11-03T03:12:57.893Z,11.02
2022-11-03T03:13:29.763Z,10.85
2022-11-03T03:14:01.604Z,11.93
2022-11-03T03:14:41.894Z,11.65
2022-11-03T03:15:16.622Z,11.23
2022-11-03T03:16:01.478Z,11.07
2022-11-03T03:16:39.756Z,8.57
2022-11-03T03:17:15.621Z,11.88
2022-11-03T03:17:55.290Z,8.73
2022-11-03T03:18:46.757Z,12.35
2022-11-03T03:19:56.150Z,10.15
2022-11-03T03:20:41.807Z,13.05
2022-11-03T03:21:23.951Z,8.68
2022-11-03T03:22:00.090Z,9.70
2022-11-03T03:22:43.572Z,10.13
2022-11-03T03:23:20.621Z,8.85
2022-11-03T03:23:58.955Z,9.18
2022-11-03T03:24:43.035Z,11.63
2022-11-03T03:25:20.609Z,8.35
2022-11-03T03:25:59.313Z,9.05
2022-11-03T03:26:34.034Z,10.30
2022-11-03T03:27:11.117Z,14.10
2022-11-03T03:27:47.491Z,9.05
2022-11-03T03:28:43.926Z,9.70
2022-11-03T03:29:23.367Z,10.35
2022-11-03T03:30:01.286Z,8.27
2022-11-03T03:30:35.365Z,9.05
2022-11-03T03:31:11.493Z,8.20
2022-11-03T03:31:48.499Z,8.32
2022-11-03T03:32:23.704Z,8.70
2022-11-03T03:32:56.940Z,12.02
2022-11-03T03:33:31.309Z,10.52
2022-11-03T03:34:16.601Z,12.45
2022-11-03T03:34:59.371Z,9.02
2022-11-03T03:35:33.340Z,9.75
2022-11-03T03:36:09.667Z,8.40
2022-11-03T03:36:44.615Z,9.95
2022-11-03T03:37:17.862Z,10.45
2022-11-03T03:37:53.326Z,9.57
2022-11-03T03:38:30.888Z,9.38
2022-11-03T03:39:06.265Z,7.47
2022-11-03T03:39:41.036Z,9.63
2022-11-03T03:40:20.584Z,9.88
2022-11-03T03:40:55.903Z,9.98
2022-11-03T03:41:29.517Z,12.43
2022-11-03T03:42:03.486Z,10.93
2022-11-03T03:42:37.219Z,7.40
2022-11-03T03:43:11.930Z,10.82
2022-11-03T03:43:44.032Z,11.77
2022-11-03T03:44:17.538Z,8.25
2022-11-03T03:44:50.918Z,9.77
2022-11-03T03:45:26.065Z,9.80
2022-11-03T03:46:04.106Z,10.18
2022-11-03T03:46:42.227Z,7.90
2022-11-03T03:47:23.256Z,10.90
2022-11-03T03:48:05.736Z,11.00
2022-11-03T03:48:37.715Z,9.30
2022-11-03T03:49:09.610Z,8.30
2022-11-03T03:49:41.510Z,9.35
2022-11-03T03:50:13.542Z,9.05
2022-11-03T03:50:48.685Z,9.32
2022-11-03T03:51:24.128Z,7.75
2022-11-03T03:51:56.428Z,8.43
2022-11-03T03:52:29.494Z,11.02
2022-11-03T03:53:03.063Z,9.75
2022-11-03T03:53:34.889Z,9.30
2022-11-03T03:54:06.777Z,12.68
2022-11-03T03:54:38.609Z,9.43
2022-11-03T03:55:17.694Z,8.30
2022-11-03T03:55:52.113Z,9.23
2022-11-03T03:57:03.653Z,8.32
2022-11-03T03:57:35.464Z,9.02
2022-11-03T03:58:10.618Z,9.73
2022-11-03T03:58:42.421Z,8.30
2022-11-03T03:59:14.530Z,8.10
2022-11-03T03:59:46.844Z,8.55
2022-11-03T04:00:19.440Z,6.85
2022-11-03T04:00:51.667Z,9.20
2022-11-03T04:01:23.761Z,8.85
2022-11-03T04:01:55.743Z,8.82
2022-11-03T04:02:27.784Z,8.73
2022-11-03T04:03:00.086Z,7.05
2022-11-03T04:03:31.992Z,12.63
2022-11-03T04:04:04.019Z,8.48
2022-11-03T04:04:35.893Z,8.55
2022-11-03T04:05:08.272Z,7.32
2022-11-03T04:05:40.153Z,6.95
2022-11-03T04:06:12.345Z,11.80
2022-11-03T04:06:44.209Z,9.38
2022-11-03T04:07:39.325Z,6.85
2022-11-03T04:08:16.791Z,8.77
2022-11-03T04:08:48.842Z,11.23
2022-11-03T04:09:20.686Z,9.10
2022-11-03T04:09:52.511Z,6.37
2022-11-03T04:10:25.149Z,10.32
2022-11-03T04:11:15.580Z,9.25
2022-11-03T04:12:06.394Z,8.35
2022-11-03T04:12:59.709Z,6.87
2022-11-03T04:13:51.124Z,8.60
2022-11-03T04:14:41.461Z,10.77
2022-11-03T04:15:32.370Z,9.57
2022-11-03T04:16:22.876Z,6.03
2022-11-03T04:17:13.719Z,8.57
2022-11-03T04:18:06.421Z,7.50
2022-11-03T04:18:57.471Z,6.07
2022-11-03T04:19:47.846Z,6.90
2022-11-03T04:20:45.629Z,5.53
2022-11-03T04:21:36.217Z,6.93
2022-11-03T04:22:17.583Z,9.60
2022-11-03T04:22:49.437Z,8.48
2022-11-03T04:23:21.310Z,7.78
2022-11-03T04:23:53.138Z,9.32
2022-11-03T04:24:25.512Z,7.05
2022-11-03T04:24:58.768Z,8.00
2022-11-03T04:25:30.593Z,6.45
2022-11-03T04:26:02.480Z,8.88
2022-11-03T04:26:34.335Z,7.93
2022-11-03T04:27:30.790Z,6.82
2022-11-03T04:28:12.004Z,4.10
2022-11-03T04:28:44.131Z,8.43
2022-11-03T04:29:15.960Z,5.15
2022-11-03T04:29:47.901Z,5.93
2022-11-03T04:30:21.265Z,8.50
2022-11-03T04:30:58.847Z,6.62
2022-11-03T04:31:35.570Z,5.43
2022-11-03T04:32:15.346Z,7.07
2022-11-03T04:32:49.166Z,8.88
2022-11-03T04:33:22.096Z,4.87
2022-11-03T04:33:54.009Z,4.37
2022-11-03T04:34:25.858Z,8.05
2022-11-03T04:34:59.073Z,3.95
2022-11-03T04:35:30.906Z,5.80
2022-11-03T04:36:17.200Z,3.92
2022-11-03T04:36:49.224Z,6.40
2022-11-03T04:37:21.400Z,6.95
2022-11-03T04:38:09.755Z,6.40
2022-11-03T04:38:43.796Z,4.85
2022-11-03T04:39:21.475Z,4.35
2022-11-03T04:40:01.456Z,8.40
2022-11-03T04:40:33.496Z,11.85
2022-11-03T04:41:37.931Z,4.72
2022-11-03T04:42:21.566Z,8.93
2022-11-03T04:42:53.921Z,7.75
2022-11-03T04:43:34.054Z,4.82
2022-11-03T04:44:14.339Z,6.18
2022-11-03T04:44:47.165Z,4.03
2022-11-03T04:45:32.609Z,5.47
2022-11-03T04:46:05.529Z,7.22
2022-11-03T04:46:37.334Z,8.45
2022-11-03T04:47:12.294Z,7.50
2022-11-03T04:47:44.159Z,5.80
2022-11-03T04:48:18.110Z,6.47
2022-11-03T04:48:50.850Z,4.53
2022-11-03T04:49:23.539Z,4.30
2022-11-03T04:49:55.718Z,6.20
2022-11-03T04:50:27.866Z,8.77
2022-11-03T04:51:02.630Z,5.03
2022-11-03T04:51:35.005Z,5.53
2022-11-03T04:52:17.529Z,8.38
2022-11-03T04:52:55.135Z,6.05
2022-11-03T04:53:32.283Z,7.22
2022-11-03T04:54:13.372Z,8.23
2022-11-03T04:54:47.349Z,6.32
2022-11-03T04:55:20.496Z,8.35
2022-11-03T04:55:54.044Z,7.35
2022-11-03T04:56:26.033Z,12.68
2022-11-03T04:56:57.856Z,10.93
2022-11-03T04:57:29.681Z,10.13
2022-11-03T04:58:11.031Z,7.65
2022-11-03T04:58:43.069Z,7.35
2022-11-03T04:59:16.844Z,5.95
2022-11-03T04:59:52.623Z,8.40
2022-11-03T05:00:25.067Z,8.02
2022-11-03T05:00:58.659Z,6.10
2022-11-03T05:01:31.918Z,6.40
2022-11-03T05:02:51.557Z,7.45
2022-11-03T05:03:36.054Z,10.80
2022-11-03T05:04:18.306Z,8.55
2022-11-03T05:04:50.477Z,6.82
2022-11-03T05:05:25.080Z,9.07
2022-11-03T05:05:57.620Z,7.12
2022-11-03T05:06:30.211Z,7.82
2022-11-03T05:07:02.025Z,6.53
2022-11-03T05:07:36.237Z,14.65
2022-11-03T05:08:09.415Z,5.95
2022-11-03T05:08:42.750Z,5.32
2022-11-03T05:09:18.156Z,5.22
2022-11-03T05:09:51.296Z,5.00
2022-11-03T05:10:29.744Z,6.28
2022-11-03T05:11:05.523Z,5.25
2022-11-03T05:11:43.960Z,3.92
2022-11-03T05:12:16.948Z,8.13
2022-11-03T05:12:49.257Z,6.47
2022-11-03T05:13:29.068Z,7.75
2022-11-03T05:14:04.546Z,5.32
2022-11-03T05:14:37.696Z,6.00
2022-11-03T05:15:27.436Z,7.97
2022-11-03T05:16:03.797Z,4.47
2022-11-03T05:16:35.839Z,5.68
2022-11-03T05:17:26.101Z,8.65
2022-11-03T05:18:00.284Z,5.65
2022-11-03T05:18:37.013Z,4.37
2022-11-03T05:19:37.787Z,18.95
2022-11-03T05:20:34.666Z,4.30
2022-11-03T05:21:15.000Z,4.37
2022-11-03T05:21:50.175Z,6.72
2022-11-03T05:22:24.833Z,7.10
2022-11-03T05:22:56.885Z,9.07
2022-11-03T05:23:36.546Z,8.55
2022-11-03T05:24:46.971Z,32.90
2022-11-03T05:25:42.153Z,47.60
2022-11-03T05:26:22.593Z,10.20
2022-11-03T05:26:57.468Z,4.90
2022-11-03T05:27:29.498Z,7.78
2022-11-03T05:28:01.590Z,6.95
2022-11-03T05:28:39.481Z,4.87
2022-11-03T05:29:11.288Z,5.78
2022-11-03T05:29:43.455Z,7.97
2022-11-03T05:30:15.584Z,6.68
2022-11-03T05:30:49.191Z,7.12
2022-11-03T05:31:22.670Z,10.27
2022-11-03T05:31:56.233Z,8.50
2022-11-03T05:32:34.280Z,8.80
2022-11-03T05:33:19.678Z,8.18
2022-11-03T05:33:58.898Z,7.80
2022-11-03T05:34:30.703Z,10.65
2022-11-03T05:35:04.213Z,8.85
2022-11-03T05:35:36.061Z,6.50
2022-11-03T05:36:21.679Z,7.25
2022-11-03T05:36:53.689Z,7.03
2022-11-03T05:37:29.630Z,5.78
2022-11-03T05:38:03.684Z,6.57
2022-11-03T05:38:35.858Z,9.50
2022-11-03T05:39:33.754Z,11.98
2022-11-03T05:40:22.361Z,7.85
2022-11-03T05:40:54.408Z,7.37
2022-11-03T05:41:30.593Z,8.68
2022-11-03T05:42:06.519Z,11.12
2022-11-03T05:42:41.811Z,14.20
2022-11-03T05:43:15.383Z,9.25
2022-11-03T05:43:56.007Z,9.02
2022-11-03T05:44:39.770Z,9.10
2022-11-03T05:45:26.151Z,8.25
2022-11-03T05:46:01.630Z,9.77
2022-11-03T05:46:35.256Z,13.25
2022-11-03T05:47:18.788Z,11.85
2022-11-03T05:47:54.225Z,12.10
2022-11-03T05:48:39.181Z,10.15
2022-11-03T05:49:11.102Z,10.23
2022-11-03T05:49:43.004Z,10.52
2022-11-03T05:50:25.246Z,9.57
2022-11-03T05:51:13.212Z,8.48
2022-11-03T05:51:46.636Z,7.30
2022-11-03T05:52:24.388Z,11.12
2022-11-03T05:53:15.043Z,9.23
2022-11-03T05:53:51.094Z,12.00
2022-11-03T05:54:26.256Z,8.95
2022-11-03T05:55:00.150Z,13.07
2022-11-03T05:55:35.842Z,7.87
2022-11-03T05:56:11.918Z,6.85
2022-11-03T05:56:43.794Z,9.63
2022-11-03T05:57:17.511Z,8.85
2022-11-03T05:57:49.561Z,7.10
2022-11-03T05:58:26.870Z,7.03
2022-11-03T05:59:00.797Z,11.15
2022-11-03T05:59:32.727Z,10.45
2022-11-03T06:00:05.088Z,9.05
2022-11-03T06:00:48.314Z,11.50
2022-11-03T06:01:29.116Z,11.45
2022-11-03T06:02:01.401Z,9.13
2022-11-03T06:02:40.287Z,8.25
2022-11-03T06:03:28.446Z,7.50
2022-11-03T06:04:19.649Z,10.90
2022-11-03T06:05:24.717Z,11.18
2022-11-03T06:05:58.584Z,11.55
2022-11-03T06:06:36.379Z,10.93
2022-11-03T06:07:30.197Z,14.05
2022-11-03T06:08:11.785Z,10.18
2022-11-03T06:08:46.048Z,8.60
2022-11-03T06:09:22.661Z,13.07
2022-11-03T06:09:54.740Z,12.07
2022-11-03T06:10:29.645Z,9.20
2022-11-03T06:11:03.407Z,14.98
2022-11-03T06:11:37.313Z,19.48
2022-11-03T06:12:15.453Z,9.82
2022-11-03T06:12:47.361Z,11.68
2022-11-03T06:13:39.905Z,10.73
2022-11-03T06:14:24.718Z,9.88
2022-11-03T06:14:56.811Z,14.75
2022-11-03T06:15:34.783Z,12.55
2022-11-03T06:16:27.877Z,9.60
2022-11-03T06:17:06.049Z,11.65
2022-11-03T06:17:38.179Z,19.10
2022-11-03T06:18:32.568Z,139.77
2022-11-03T06:19:21.834Z,20.70
2022-11-03T06:19:59.474Z,14.50
2022-11-03T06:20:31.311Z,14.60
2022-11-03T06:21:17.528Z,25.25
2022-11-03T06:21:51.732Z,8.77
2022-11-03T06:22:31.354Z,10.80
2022-11-03T06:23:03.312Z,11.07
2022-11-03T06:23:37.814Z,11.73
2022-11-03T06:24:14.135Z,10.88
2022-11-03T06:24:46.106Z,9.88
2022-11-03T06:25:35.159Z,14.32
2022-11-03T06:26:16.625Z,15.52
2022-11-03T06:26:49.868Z,11.20
2022-11-03T06:27:28.306Z,11.73
2022-11-03T06:28:03.479Z,13.48
2022-11-03T06:28:37.834Z,14.45
2022-11-03T06:29:15.488Z,12.30
2022-11-03T06:29:52.215Z,18.87
2022-11-03T06:30:29.381Z,13.93
2022-11-03T06:31:01.294Z,17.08
2022-11-03T06:31:34.198Z,9.43
2022-11-03T06:32:12.761Z,12.05
2022-11-03T06:32:44.746Z,21.08
2022-11-03T06:33:25.712Z,14.52
2022-11-03T06:34:45.342Z,12.05
2022-11-03T06:35:18.396Z,14.02
2022-11-03T06:35:53.963Z,18.92
2022-11-03T06:36:35.559Z,12.77
2022-11-03T06:37:27.505Z,11.00
2022-11-03T06:38:00.163Z,11.73
2022-11-03T06:38:35.390Z,9.40
2022-11-03T06:39:23.387Z,13.65
2022-11-03T06:40:00.245Z,14.07
2022-11-03T06:40:36.728Z,13.98
2022-11-03T06:41:26.652Z,16.75
2022-11-03T06:41:58.526Z,13.10
2022-11-03T06:42:33.368Z,13.18
2022-11-03T06:43:19.264Z,12.82
2022-11-03T06:43:52.445Z,9.48
2022-11-03T06:44:26.752Z,9.38
2022-11-03T06:44:58.654Z,12.57
2022-11-03T06:45:30.546Z,17.92
2022-11-03T06:46:12.721Z,16.12
2022-11-03T06:46:44.574Z,18.87
2022-11-03T06:47:23.575Z,13.77
2022-11-03T06:47:55.665Z,20.67
2022-11-03T06:49:27.429Z,23.67
2022-11-03T06:50:00.814Z,21.58
2022-11-03T06:50:33.200Z,21.90
2022-11-03T06:51:16.374Z,26.73
2022-11-03T06:51:48.269Z,26.48
2022-11-03T06:53:29.480Z,23.77
2022-11-03T06:54:01.917Z,24.55
2022-11-03T06:54:34.052Z,28.77
2022-11-03T06:55:22.387Z,28.40
2022-11-03T06:55:54.712Z,25.55
2022-11-03T06:56:31.623Z,38.38
2022-11-03T06:57:10.734Z,35.95
2022-11-03T06:57:46.026Z,38.17
2022-11-03T06:58:28.450Z,38.20
2022-11-03T06:59:00.958Z,31.40
2022-11-03T06:59:32.810Z,35.15
2022-11-03T07:00:32.873Z,25.27
2022-11-03T07:01:31.476Z,25.00
2022-11-03T07:02:03.556Z,23.23
2022-11-03T07:03:08.152Z,27.62
2022-11-03T07:03:40.974Z,27.02
2022-11-03T07:04:18.792Z,25.65
2022-11-03T07:04:50.635Z,23.87
2022-11-03T07:05:25.702Z,25.52
2022-11-03T07:06:01.913Z,27.58
2022-11-03T07:06:36.848Z,22.52
2022-11-03T07:07:08.985Z,24.12
2022-11-03T07:07:40.976Z,22.90
2022-11-03T07:08:30.919Z,24.23
2022-11-03T07:09:05.739Z,35.17
2022-11-03T07:09:37.614Z,23.50
2022-11-03T07:10:09.944Z,18.55
2022-11-03T07:10:42.382Z,23.75
2022-11-03T07:11:32.013Z,20.95
2022-11-03T07:12:15.265Z,21.83
2022-11-03T07:12:47.175Z,30.42
2022-11-03T07:13:24.930Z,24.35
2022-11-03T07:14:11.963Z,23.02
2022-11-03T07:14:44.150Z,24.98
2022-11-03T07:15:38.233Z,22.73
2022-11-03T07:16:34.327Z,25.67
2022-11-03T07:17:13.999Z,28.65
2022-11-03T07:17:46.083Z,25.77
2022-11-03T07:18:29.626Z,27.87
2022-11-03T07:19:18.573Z,25.25
2022-11-03T07:19:50.465Z,23.12
2022-11-03T07:20:22.286Z,23.98
2022-11-03T07:20:54.947Z,28.05
2022-11-03T07:21:38.238Z,24.85
2022-11-03T07:22:22.065Z,26.15
2022-11-03T07:22:55.341Z,28.77
2022-11-03T07:23:30.189Z,29.25
2022-11-03T07:24:13.040Z,28.60
2022-11-03T07:24:46.897Z,24.75
2022-11-03T07:25:21.084Z,29.30
2022-11-03T07:26:02.966Z,29.20
2022-11-03T07:26:35.127Z,28.27
2022-11-03T07:27:31.748Z,25.88
2022-11-03T07:28:04.797Z,41.83
2022-11-03T07:28:39.739Z,26.60
2022-11-03T07:29:20.929Z,30.08
2022-11-03T07:30:20.845Z,28.27
2022-11-03T07:30:52.847Z,35.22
2022-11-03T07:31:26.427Z,27.75
2022-11-03T07:32:00.531Z,31.95
2022-11-03T07:32:34.525Z,32.35
2022-11-03T07:33:16.303Z,29.83
2022-11-03T07:33:48.587Z,31.55
2022-11-03T07:34:27.368Z,38.45
2022-11-03T07:35:05.323Z,30.52
2022-11-03T07:36:08.298Z,36.17
2022-11-03T07:36:32.538Z,33.28
2022-11-03T07:37:04.717Z,34.05
2022-11-03T07:37:36.793Z,39.58
2022-11-03T07:38:29.395Z,33.25
2022-11-03T07:39:02.711Z,36.15
2022-11-03T07:39:37.607Z,39.25
2022-11-03T07:40:16.139Z,33.47
2022-11-03T07:40:50.356Z,39.60
2022-11-03T07:41:31.083Z,37.95
2022-11-03T07:42:18.701Z,36.00
2022-11-03T07:42:51.823Z,32.83
2022-11-03T07:43:34.954Z,34.83
2022-11-03T07:44:13.639Z,34.15
2022-11-03T07:44:46.171Z,41.08
2022-11-03T07:46:03.414Z,37.17
2022-11-03T07:46:35.267Z,37.38
2022-11-03T07:47:13.583Z,33.80
2022-11-03T07:47:45.457Z,32.67
2022-11-03T07:48:21.789Z,41.40
2022-11-03T07:48:55.556Z,37.13
2022-11-03T07:49:30.113Z,36.38
2022-11-03T07:50:02.276Z,33.03
2022-11-03T07:50:34.486Z,39.33
2022-11-03T07:51:26.253Z,39.95
2022-11-03T07:51:59.797Z,34.35
2022-11-03T07:52:31.970Z,34.78
2022-11-03T07:53:14.018Z,35.42
2022-11-03T07:53:47.643Z,39.10
2022-11-03T07:54:23.579Z,38.63
2022-11-03T07:54:59.421Z,34.05
2022-11-03T07:55:31.305Z,37.25
2022-11-03T07:56:15.534Z,44.25
2022-11-03T07:56:58.308Z,35.63
2022-11-03T07:57:32.094Z,37.67
2022-11-03T07:58:22.003Z,41.05
2022-11-03T07:59:09.076Z,36.55
2022-11-03T07:59:53.842Z,40.50
2022-11-03T08:00:25.836Z,40.42
2022-11-03T08:00:58.019Z,40.28
2022-11-03T08:01:34.193Z,41.15
2022-11-03T08:02:29.196Z,43.30
2022-11-03T08:03:01.785Z,38.30
2022-11-03T08:03:43.650Z,36.83
2022-11-03T08:04:41.696Z,39.55
2022-11-03T08:05:13.714Z,37.42
2022-11-03T08:05:45.546Z,36.83
2022-11-03T08:06:19.907Z,45.20
2022-11-03T08:06:52.292Z,35.97
2022-11-03T08:07:25.018Z,50.55
2022-11-03T08:07:57.224Z,43.53
2022-11-03T08:08:29.128Z,39.50
2022-11-03T08:09:00.982Z,40.67
2022-11-03T08:09:32.812Z,44.38
2022-11-03T08:10:06.846Z,47.53
2022-11-03T08:10:38.689Z,44.42